Time;durP1;ratioP1;P1;durP2;ratioP2;P2;SDS_P1;SDS_P2;PMS_P1;PMS_P2;Temp;Humidity;BMP_temperature;BMP_pressure;BME280_temperature;BME280_humidity;BME280_pressure;Samples;Min_cycle;Max_cycle;Signal;HPM_P1;HPM_P2
2021/01/01 00:00:35;;;;;;;27.27;14.85;;;2.10;62.40;;;;;;5043133;28;20150;-63
2021/01/01 00:03:01;;;;;;;25.27;14.43;;;1.90;62.50;;;;;;5060838;28;20110;-63
2021/01/01 00:05:30;;;;;;;26.27;14.90;;;1.90;62.10;;;;;;5060347;28;20320;-63
2021/01/01 00:07:55;;;;;;;25.45;15.50;;;1.90;62.20;;;;;;5059601;28;20320;-63
2021/01/01 00:10:21;;;;;;;25.48;15.02;;;1.80;62.40;;;;;;5064370;28;20066;-63
2021/01/01 00:12:46;;;;;;;29.40;16.17;;;1.70;62.60;;;;;;5059801;28;20040;-63
2021/01/01 00:15:12;;;;;;;31.70;16.90;;;1.60;63.50;;;;;;5060901;28;20060;-63
2021/01/01 00:17:39;;;;;;;30.65;16.25;;;1.50;63.70;;;;;;5060911;28;20060;-63
2021/01/01 00:20:05;;;;;;;23.38;15.18;;;1.50;63.60;;;;;;5059734;28;20029;-63
2021/01/01 00:22:31;;;;;;;24.88;14.63;;;1.60;63.60;;;;;;5064034;28;20037;-63
2021/01/01 00:24:56;;;;;;;26.05;14.52;;;1.50;63.60;;;;;;5060709;28;20047;-63
2021/01/01 00:27:22;;;;;;;26.23;15.25;;;1.40;64.30;;;;;;5059910;28;20092;-63
2021/01/01 00:29:47;;;;;;;29.42;17.58;;;1.40;64.10;;;;;;5060557;28;20049;-64
2021/01/01 00:32:13;;;;;;;30.17;17.35;;;1.30;64.10;;;;;;5060883;28;20044;-64
2021/01/01 00:34:39;;;;;;;32.35;18.48;;;1.30;64.70;;;;;;5060685;28;20253;-64
2021/01/01 00:37:04;;;;;;;31.25;17.45;;;1.20;65.10;;;;;;5062995;28;20185;-64
2021/01/01 00:39:30;;;;;;;30.17;17.50;;;1.20;65.10;;;;;;5060343;28;20041;-64
2021/01/01 00:41:55;;;;;;;35.58;18.35;;;1.10;65.40;;;;;;5059262;28;20071;-64
2021/01/01 00:44:21;;;;;;;34.13;19.25;;;1.00;65.60;;;;;;5060338;28;20374;-63
2021/01/01 00:46:46;;;;;;;34.70;19.58;;;0.90;65.80;;;;;;5059401;28;20052;-63
2021/01/01 00:49:12;;;;;;;37.90;20.38;;;0.80;66.50;;;;;;5062932;28;20025;-63
2021/01/01 00:51:37;;;;;;;33.55;18.88;;;0.80;66.40;;;;;;5059806;28;20059;-63
2021/01/01 00:54:03;;;;;;;32.10;18.17;;;0.70;66.40;;;;;;5060581;28;20339;-63
2021/01/01 00:56:29;;;;;;;36.60;19.65;;;0.90;66.40;;;;;;5059175;28;20328;-63
2021/01/01 00:58:55;;;;;;;34.03;19.05;;;0.80;67.10;;;;;;5059284;28;20044;-63
2021/01/01 01:01:22;;;;;;;34.33;19.48;;;0.80;67.10;;;;;;5045968;28;20021;-63
2021/01/01 01:03:51;;;;;;;32.90;18.80;;;0.80;67.30;;;;;;5059287;28;20044;-63
2021/01/01 01:06:17;;;;;;;32.42;19.00;;;0.80;66.80;;;;;;5059066;28;20059;-63
2021/01/01 01:08:43;;;;;;;35.72;19.08;;;0.70;67.70;;;;;;5023254;28;20033;-63
2021/01/01 01:11:09;;;;;;;31.50;18.17;;;0.80;67.30;;;;;;5050942;28;20075;-63
2021/01/01 01:13:34;;;;;;;30.25;17.55;;;0.80;67.50;;;;;;5060998;28;20055;-63
2021/01/01 01:16:00;;;;;;;30.63;17.65;;;0.70;67.00;;;;;;5062786;28;20033;-63
2021/01/01 01:18:25;;;;;;;30.17;16.27;;;0.60;67.10;;;;;;5062174;28;20056;-63
2021/01/01 01:20:51;;;;;;;26.77;16.00;;;0.70;66.50;;;;;;5064193;28;20143;-63
2021/01/01 01:23:18;;;;;;;28.35;15.80;;;0.60;66.70;;;;;;5063958;28;20037;-63
2021/01/01 01:25:44;;;;;;;26.67;14.90;;;0.50;66.70;;;;;;5059199;28;20092;-63
2021/01/01 01:28:10;;;;;;;26.70;15.07;;;0.50;66.90;;;;;;5067340;28;20078;-63
2021/01/01 01:30:35;;;;;;;25.20;14.95;;;0.50;67.00;;;;;;5062396;28;20037;-63
2021/01/01 01:33:01;;;;;;;24.88;14.98;;;0.40;67.80;;;;;;5063958;28;20116;-63
2021/01/01 01:35:26;;;;;;;24.83;14.55;;;0.40;67.80;;;;;;5067789;28;20240;-63
2021/01/01 01:37:52;;;;;;;23.35;13.85;;;0.40;67.90;;;;;;5063455;28;20328;-63
2021/01/01 01:40:18;;;;;;;24.90;13.77;;;0.40;68.00;;;;;;5067112;28;20079;-63
2021/01/01 01:42:43;;;;;;;23.30;13.70;;;0.40;68.00;;;;;;5063653;28;20056;-63
2021/01/01 01:45:18;;;;;;;22.60;12.75;;;0.40;67.90;;;;;;5063591;28;20040;-62
2021/01/01 01:47:44;;;;;;;23.10;12.63;;;0.50;68.40;;;;;;5062452;28;20033;-63
2021/01/01 01:50:10;;;;;;;21.40;12.25;;;0.50;68.50;;;;;;5062330;28;20252;-63
2021/01/01 01:52:36;;;;;;;21.08;12.27;;;0.50;68.50;;;;;;5062099;28;20063;-64
2021/01/01 01:55:01;;;;;;;23.40;12.35;;;0.50;68.20;;;;;;5065368;28;20029;-62
2021/01/01 01:57:27;;;;;;;23.98;12.63;;;0.50;68.10;;;;;;5045981;28;20040;-63
2021/01/01 01:59:56;;;;;;;19.90;11.45;;;0.60;67.80;;;;;;5062294;28;20035;-63
2021/01/01 02:02:25;;;;;;;21.67;12.00;;;0.60;68.60;;;;;;5045391;28;20033;-63
2021/01/01 02:04:50;;;;;;;19.58;11.32;;;0.50;68.70;;;;;;5061911;28;20066;-63
2021/01/01 02:07:16;;;;;;;17.33;9.93;;;0.70;68.70;;;;;;5066591;28;20029;-63
2021/01/01 02:09:44;;;;;;;16.33;10.23;;;0.70;68.10;;;;;;5062190;28;20087;-63
2021/01/01 02:12:10;;;;;;;15.35;8.75;;;0.70;68.10;;;;;;5062148;28;20210;-63
2021/01/01 02:14:35;;;;;;;13.77;7.75;;;0.80;68.00;;;;;;5061751;28;20056;-63
2021/01/01 02:17:01;;;;;;;13.75;7.70;;;0.80;67.80;;;;;;5045073;28;20063;-63
2021/01/01 02:19:26;;;;;;;11.57;7.35;;;0.80;67.90;;;;;;5066087;28;20029;-63
2021/01/01 02:21:58;;;;;;;14.20;7.82;;;0.80;67.30;;;;;;5063345;28;20056;-63
2021/01/01 02:24:23;;;;;;;11.60;7.03;;;0.70;67.60;;;;;;5062893;28;20298;-63
2021/01/01 02:26:49;;;;;;;14.95;7.60;;;0.80;67.20;;;;;;5062641;28;20040;-63
2021/01/01 02:29:14;;;;;;;13.00;7.63;;;0.80;67.60;;;;;;5062270;28;20083;-63
2021/01/01 02:31:40;;;;;;;14.43;8.52;;;0.80;67.80;;;;;;5061841;28;20091;-63
2021/01/01 02:34:06;;;;;;;13.15;7.90;;;0.90;67.80;;;;;;5066008;28;20095;-63
2021/01/01 02:36:31;;;;;;;14.07;8.00;;;0.90;68.00;;;;;;5061246;28;20056;-63
2021/01/01 02:38:57;;;;;;;14.85;8.65;;;0.90;67.30;;;;;;5062566;28;20434;-63
2021/01/01 02:41:22;;;;;;;14.50;8.07;;;1.00;66.70;;;;;;5062398;28;20025;-63
2021/01/01 02:43:48;;;;;;;16.63;8.25;;;0.90;66.30;;;;;;5062229;28;20059;-63
2021/01/01 02:46:13;;;;;;;14.77;8.27;;;0.90;66.80;;;;;;5065561;28;20072;-63
2021/01/01 02:48:39;;;;;;;14.60;8.20;;;0.90;66.40;;;;;;5062511;28;20048;-63
2021/01/01 02:51:04;;;;;;;15.10;8.38;;;1.00;65.30;;;;;;5062255;28;20041;-63
2021/01/01 02:53:30;;;;;;;15.95;8.43;;;0.90;66.60;;;;;;5044317;28;20048;-63
2021/01/01 02:55:56;;;;;;;15.98;8.50;;;0.90;65.50;;;;;;5060872;28;20347;-63
2021/01/01 02:58:21;;;;;;;14.82;8.00;;;0.90;65.10;;;;;;5047544;28;20033;-63
2021/01/01 03:00:48;;;;;;;13.85;8.00;;;1.00;66.00;;;;;;5062341;28;20051;-63
2021/01/01 03:03:13;;;;;;;12.25;7.28;;;1.10;65.00;;;;;;5060737;28;20040;-63
2021/01/01 03:05:39;;;;;;;12.02;7.35;;;1.00;65.60;;;;;;5060483;28;20047;-63
2021/01/01 03:08:05;;;;;;;17.08;8.18;;;1.10;65.80;;;;;;5061748;28;20079;-63
2021/01/01 03:10:30;;;;;;;15.10;7.88;;;1.00;66.70;;;;;;5065024;28;20065;-63
2021/01/01 03:12:56;;;;;;;14.32;7.78;;;1.00;66.60;;;;;;5060559;28;20041;-63
2021/01/01 03:15:21;;;;;;;14.90;7.90;;;1.00;66.20;;;;;;5061777;28;20049;-63
2021/01/01 03:17:47;;;;;;;13.65;8.40;;;1.00;65.60;;;;;;5060420;28;20438;-63
2021/01/01 03:20:13;;;;;;;15.05;8.23;;;1.00;65.80;;;;;;5060671;28;20059;-63
2021/01/01 03:22:39;;;;;;;15.20;8.02;;;1.00;66.40;;;;;;5061392;28;20037;-64
2021/01/01 03:25:05;;;;;;;13.15;7.95;;;1.00;66.10;;;;;;5065118;28;20037;-63
2021/01/01 03:27:31;;;;;;;13.73;7.75;;;0.90;67.50;;;;;;5060449;28;20088;-63
2021/01/01 03:29:57;;;;;;;12.25;7.00;;;1.00;67.20;;;;;;5060517;28;20359;-63
2021/01/01 03:32:22;;;;;;;13.88;6.70;;;1.00;66.80;;;;;;5061549;28;20048;-63
2021/01/01 03:34:48;;;;;;;11.75;7.22;;;0.90;66.50;;;;;;5060560;28;20032;-64
2021/01/01 03:37:13;;;;;;;11.07;6.93;;;0.90;66.90;;;;;;5064903;28;20028;-63
2021/01/01 03:39:39;;;;;;;13.13;7.20;;;1.00;67.10;;;;;;5061270;28;20075;-63
2021/01/01 03:42:04;;;;;;;12.85;7.55;;;1.00;66.30;;;;;;5059661;28;20100;-63
2021/01/01 03:44:30;;;;;;;11.57;7.13;;;0.90;66.60;;;;;;5061441;28;20259;-63
2021/01/01 03:46:55;;;;;;;10.35;6.70;;;1.00;66.80;;;;;;5059900;28;20033;-63
2021/01/01 03:49:21;;;;;;;12.10;6.80;;;0.90;66.00;;;;;;5064700;28;20032;-63
2021/01/01 03:51:46;;;;;;;12.57;7.35;;;0.90;66.30;;;;;;5060609;28;20202;-63
2021/01/01 03:54:12;;;;;;;13.18;7.25;;;0.90;66.70;;;;;;5061391;28;20041;-63
2021/01/01 03:56:37;;;;;;;11.60;6.72;;;0.90;66.70;;;;;;5043306;28;20033;-63
2021/01/01 03:59:03;;;;;;;11.55;7.07;;;0.90;66.70;;;;;;5060190;28;20111;-63
2021/01/01 04:01:28;;;;;;;12.10;7.18;;;0.80;67.20;;;;;;5064181;28;20032;-63
2021/01/01 04:03:54;;;;;;;13.15;6.70;;;0.70;67.10;;;;;;5061189;28;20089;-63
2021/01/01 04:06:20;;;;;;;12.38;6.38;;;0.80;67.20;;;;;;5059735;28;20033;-63
2021/01/01 04:08:45;;;;;;;12.05;6.57;;;0.90;67.10;;;;;;5059867;28;20209;-63
2021/01/01 04:11:11;;;;;;;11.43;6.20;;;0.90;65.80;;;;;;5060817;28;20224;-63
2021/01/01 04:13:36;;;;;;;12.98;6.95;;;0.90;65.70;;;;;;5059631;28;20079;-65
2021/01/01 04:16:02;;;;;;;10.85;6.10;;;0.90;65.40;;;;;;5063944;28;20370;-63
2021/01/01 04:18:27;;;;;;;10.57;6.13;;;0.90;65.10;;;;;;5059712;28;20247;-63
2021/01/01 04:20:53;;;;;;;12.75;6.10;;;0.90;65.50;;;;;;5059823;28;20029;-63
2021/01/01 04:23:19;;;;;;;11.80;6.90;;;0.90;65.50;;;;;;5059636;28;20029;-63
2021/01/01 04:25:47;;;;;;;13.10;6.65;;;0.80;66.60;;;;;;5060733;28;20224;-63
2021/01/01 04:28:12;;;;;;;9.98;5.82;;;0.80;66.40;;;;;;5045999;28;20063;-63
2021/01/01 04:30:38;;;;;;;12.38;6.40;;;0.80;66.40;;;;;;5060955;28;20320;-63
2021/01/01 04:33:04;;;;;;;10.50;6.28;;;0.80;66.60;;;;;;5059951;28;20380;-63
2021/01/01 04:35:29;;;;;;;12.98;6.72;;;0.70;67.30;;;;;;5059373;28;20112;-63
2021/01/01 04:37:55;;;;;;;11.80;6.15;;;0.80;67.30;;;;;;5060598;28;20300;-63
2021/01/01 04:40:20;;;;;;;11.95;6.10;;;0.90;67.00;;;;;;5064352;28;20312;-63
2021/01/01 04:42:46;;;;;;;10.57;6.40;;;0.90;66.70;;;;;;5059803;28;20036;-63
2021/01/01 04:45:12;;;;;;;10.48;6.10;;;0.80;66.70;;;;;;5060663;28;20079;-63
2021/01/01 04:47:37;;;;;;;10.13;6.03;;;0.90;66.90;;;;;;5059330;28;20083;-63
2021/01/01 04:50:06;;;;;;;14.30;5.95;;;0.90;66.80;;;;;;5059279;28;20033;-63
2021/01/01 04:52:32;;;;;;;9.93;5.72;;;0.80;66.50;;;;;;5064951;28;20220;-63
2021/01/01 04:55:01;;;;;;;9.57;5.90;;;0.70;66.10;;;;;;5063793;28;20096;-63
2021/01/01 04:57:27;;;;;;;10.95;6.13;;;0.60;67.10;;;;;;5063742;28;20390;-63
2021/01/01 04:59:53;;;;;;;10.70;6.05;;;0.70;67.20;;;;;;5064273;28;20286;-63
2021/01/01 05:02:18;;;;;;;10.07;6.38;;;0.70;67.90;;;;;;5063183;28;20029;-63
2021/01/01 05:04:47;;;;;;;9.85;5.90;;;0.80;68.40;;;;;;5046579;28;20029;-63
2021/01/01 05:07:19;;;;;;;10.23;6.10;;;0.70;67.50;;;;;;5067706;28;20039;-63
2021/01/01 05:09:45;;;;;;;11.77;6.03;;;0.80;66.70;;;;;;5063159;28;20041;-63
2021/01/01 05:12:11;;;;;;;9.70;5.70;;;0.70;67.00;;;;;;5064063;28;20055;-63
2021/01/01 05:14:37;;;;;;;11.30;6.10;;;0.70;67.60;;;;;;5062962;28;20332;-63
2021/01/01 05:17:03;;;;;;;11.18;6.20;;;0.70;67.20;;;;;;5063532;28;20041;-62
2021/01/01 05:19:42;;;;;;;10.98;6.47;;;0.70;67.80;;;;;;5066159;28;20251;-62
2021/01/01 05:22:08;;;;;;;8.27;5.65;;;0.60;67.80;;;;;;5063881;28;20043;-63
2021/01/01 05:24:37;;;;;;;11.85;5.85;;;0.70;67.20;;;;;;5064262;28;20119;-63
2021/01/01 05:27:11;;;;;;;11.75;6.65;;;0.60;67.70;;;;;;5063015;28;20045;-63
2021/01/01 05:29:41;;;;;;;11.32;6.22;;;0.60;67.80;;;;;;5046177;28;20041;-62
2021/01/01 05:32:08;;;;;;;13.45;6.38;;;0.50;67.60;;;;;;5046438;28;20243;-63
2021/01/01 05:34:41;;;;;;;11.95;6.97;;;0.50;67.80;;;;;;5064409;28;20029;-63
2021/01/01 05:37:07;;;;;;;10.93;6.10;;;0.40;67.60;;;;;;5065181;28;20324;-62
2021/01/01 05:39:33;;;;;;;11.48;6.47;;;0.40;67.50;;;;;;5062928;28;20094;-62
2021/01/01 05:41:58;;;;;;;12.57;6.88;;;0.40;68.00;;;;;;5062902;28;20033;-62
2021/01/01 05:44:25;;;;;;;12.63;7.22;;;0.40;67.90;;;;;;5062555;28;20285;-62
2021/01/01 05:47:04;;;;;;;11.93;6.85;;;0.40;67.80;;;;;;5063810;28;20095;-62
2021/01/01 05:49:34;;;;;;;12.68;6.78;;;0.40;68.10;;;;;;5066969;28;20212;-62
2021/01/01 05:52:19;;;;;;;12.93;6.45;;;0.40;68.10;;;;;;5063215;28;20033;-62
2021/01/01 05:54:49;;;;;;;14.27;6.82;;;0.30;67.10;;;;;;5063764;28;20044;-63
2021/01/01 05:57:15;;;;;;;12.90;6.45;;;0.30;67.50;;;;;;5062311;28;20040;-62
2021/01/01 05:59:42;;;;;;;12.13;6.47;;;0.30;67.00;;;;;;5062339;28;20060;-62
2021/01/01 06:02:11;;;;;;;12.40;6.70;;;0.20;67.70;;;;;;5062175;28;20032;-62
2021/01/01 06:04:37;;;;;;;10.90;6.47;;;0.10;67.80;;;;;;5062562;28;20061;-63
2021/01/01 06:07:04;;;;;;;12.27;7.30;;;0.10;67.90;;;;;;5065573;28;20052;-62
2021/01/01 06:09:31;;;;;;;11.35;6.78;;;0.10;67.80;;;;;;5062256;28;20270;-62
2021/01/01 06:12:01;;;;;;;14.90;7.07;;;0.10;67.90;;;;;;5062342;28;20044;-62
2021/01/01 06:14:37;;;;;;;11.95;6.65;;;0.00;68.30;;;;;;5062896;28;20336;-62
2021/01/01 06:17:09;;;;;;;12.05;6.82;;;0.00;68.30;;;;;;5062120;28;20040;-62
2021/01/01 06:19:47;;;;;;;14.05;7.00;;;0.10;68.10;;;;;;5065064;28;20025;-63
2021/01/01 06:22:31;;;;;;;14.18;7.05;;;0.00;68.00;;;;;;5064046;28;20032;-62
2021/01/01 06:25:00;;;;;;;10.82;6.70;;;0.00;67.50;;;;;;5062032;28;20041;-62
2021/01/01 06:27:27;;;;;;;13.05;6.75;;;0.00;67.80;;;;;;5062036;28;20148;-62
2021/01/01 06:30:04;;;;;;;12.15;6.45;;;-3276.70;68.00;;;;;;5061405;28;20040;-62
2021/01/01 06:32:32;;;;;;;12.43;7.00;;;-3276.70;68.20;;;;;;5061640;28;20287;-63
2021/01/01 06:35:17;;;;;;;11.50;6.88;;;-3276.70;68.00;;;;;;5062522;28;20112;-62
2021/01/01 06:37:46;;;;;;;11.93;6.82;;;-3276.70;67.70;;;;;;5061466;28;20037;-63
2021/01/01 06:40:20;;;;;;;12.38;6.68;;;-3276.70;67.90;;;;;;5065268;28;20080;-62
2021/01/01 06:42:50;;;;;;;11.07;6.80;;;-3276.60;68.00;;;;;;5062745;28;20037;-63
2021/01/01 06:45:41;;;;;;;10.95;6.47;;;-3276.50;68.10;;;;;;5062138;28;20067;-62
2021/01/01 06:48:07;;;;;;;12.75;6.85;;;-3276.50;68.20;;;;;;5062559;28;20029;-62
2021/01/01 06:50:34;;;;;;;16.45;7.22;;;-3276.50;68.20;;;;;;5062218;28;20033;-62
2021/01/01 06:53:07;;;;;;;18.25;7.80;;;-3276.50;67.90;;;;;;5062330;28;20216;-62
2021/01/01 06:55:40;;;;;;;12.80;7.50;;;-3276.50;68.30;;;;;;5064293;28;20029;-62
2021/01/01 06:58:06;;;;;;;14.48;7.68;;;-3276.60;68.00;;;;;;5062849;28;20060;-63
2021/01/01 07:00:50;;;;;;;15.70;6.97;;;-3276.50;68.20;;;;;;5044965;28;20211;-62
2021/01/01 07:03:34;;;;;;;12.20;7.22;;;-3276.50;68.00;;;;;;5062121;28;20362;-62
2021/01/01 07:06:00;;;;;;;12.65;7.20;;;-3276.50;68.20;;;;;;5061039;28;20037;-62
2021/01/01 07:08:41;;;;;;;12.68;7.32;;;-3276.40;68.80;;;;;;5062292;28;20117;-62
2021/01/01 07:11:12;;;;;;;11.75;7.07;;;-3276.40;69.20;;;;;;5060693;28;20028;-63
2021/01/01 07:13:44;;;;;;;;;;;-3276.40;69.10;;;;;;5062417;28;20035;-62
2021/01/01 07:16:10;;;;;;;13.93;7.15;;;-3276.50;68.70;;;;;;5063249;28;19912;-62
2021/01/01 07:18:36;;;;;;;12.25;6.40;;;-3276.60;68.50;;;;;;5062026;28;20096;-62
2021/01/01 07:21:06;;;;;;;12.27;6.55;;;-3276.50;69.00;;;;;;5060907;28;20037;-62
2021/01/01 07:23:31;;;;;;;12.02;6.63;;;-3276.70;69.20;;;;;;5061675;28;20090;-62
2021/01/01 07:25:57;;;;;;;12.93;7.20;;;-3276.60;68.40;;;;;;5060533;28;20049;-62
2021/01/01 07:28:23;;;;;;;13.18;7.07;;;-3276.60;68.70;;;;;;5064285;28;20051;-62
2021/01/01 07:30:49;;;;;;;10.57;6.93;;;-3276.60;68.50;;;;;;5060638;28;20247;-63
2021/01/01 07:33:24;;;;;;;12.73;6.88;;;-3276.70;68.30;;;;;;5061963;28;20051;-62
2021/01/01 07:35:54;;;;;;;11.05;6.82;;;-3276.70;67.80;;;;;;5060540;28;20116;-62
2021/01/01 07:38:20;;;;;;;12.80;7.40;;;-3276.70;68.20;;;;;;5043455;28;20075;-62
2021/01/01 07:40:46;;;;;;;16.13;7.60;;;-3276.60;68.60;;;;;;5060304;28;20041;-62
2021/01/01 07:43:11;;;;;;;12.45;6.88;;;-3276.60;68.80;;;;;;5063804;28;20028;-62
2021/01/01 07:45:37;;;;;;;12.13;7.10;;;-3276.70;69.20;;;;;;5060569;28;20051;-62
2021/01/01 07:48:03;;;;;;;13.32;7.10;;;-3276.70;68.90;;;;;;5059981;28;20036;-62
2021/01/01 07:50:30;;;;;;;12.88;7.05;;;-3276.70;68.60;;;;;;5059394;28;20041;-62
2021/01/01 07:53:09;;;;;;;14.48;7.80;;;0.00;68.60;;;;;;5060089;28;20045;-63
2021/01/01 07:55:35;;;;;;;12.27;7.15;;;-3276.70;68.80;;;;;;5062156;28;20331;-63
2021/01/01 07:58:08;;;;;;;12.05;7.57;;;0.00;69.20;;;;;;5063649;28;20029;-63
2021/01/01 08:00:35;;;;;;;11.38;7.28;;;0.00;70.10;;;;;;5060539;28;20040;-61
2021/01/01 08:03:01;;;;;;;14.50;8.00;;;0.00;69.20;;;;;;5060227;28;20209;-62
2021/01/01 08:05:26;;;;;;;15.85;7.85;;;0.00;68.30;;;;;;5060236;28;20044;-63
2021/01/01 08:07:52;;;;;;;14.40;8.18;;;0.00;68.80;;;;;;5043323;28;20209;-62
2021/01/01 08:10:33;;;;;;;13.88;8.05;;;0.00;68.30;;;;;;5064113;28;20029;-62
2021/01/01 08:12:59;;;;;;;15.98;8.40;;;0.00;68.90;;;;;;5060497;28;20029;-61
2021/01/01 08:15:30;;;;;;;12.95;7.65;;;0.10;68.80;;;;;;5060855;28;20362;-61
2021/01/01 08:17:56;;;;;;;14.50;7.90;;;0.10;68.80;;;;;;5059916;28;20033;-61
2021/01/01 08:20:22;;;;;;;14.70;7.47;;;0.30;68.10;;;;;;5059669;28;20039;-61
2021/01/01 08:22:48;;;;;;;13.38;7.57;;;0.40;68.20;;;;;;5060876;28;20060;-61
2021/01/01 08:25:14;;;;;;;12.50;7.75;;;0.60;69.20;;;;;;5063960;28;20185;-61
2021/01/01 08:27:40;;;;;;;14.85;8.15;;;0.70;67.80;;;;;;5061100;28;20071;-61
2021/01/01 08:30:06;;;;;;;14.40;8.38;;;0.60;67.60;;;;;;5058940;28;20248;-61
2021/01/01 08:32:32;;;;;;;17.25;8.90;;;0.80;67.20;;;;;;5059573;28;20319;-62
2021/01/01 08:34:59;;;;;;;17.40;9.35;;;0.90;67.00;;;;;;5059473;28;20037;-62
2021/01/01 08:37:25;;;;;;;14.70;8.82;;;1.00;66.70;;;;;;5063913;28;20035;-62
2021/01/01 08:40:04;;;;;;;16.77;9.32;;;1.20;66.20;;;;;;5060086;28;20033;-61
2021/01/01 08:42:34;;;;;;;18.92;10.02;;;1.40;66.60;;;;;;5061067;28;20082;-63
2021/01/01 08:45:01;;;;;;;20.20;9.50;;;1.50;66.20;;;;;;5059813;28;20041;-62
2021/01/01 08:47:43;;;;;;;16.77;9.13;;;1.70;65.80;;;;;;5059533;28;20065;-62
2021/01/01 08:50:28;;;;;;;14.52;8.38;;;1.80;65.20;;;;;;5059673;28;20029;-62
2021/01/01 08:52:58;;;;;;;17.20;9.15;;;1.90;64.90;;;;;;5059626;28;20045;-62
2021/01/01 08:55:24;;;;;;;16.50;9.20;;;1.70;64.80;;;;;;5062761;28;20059;-62
2021/01/01 08:57:49;;;;;;;18.15;9.63;;;1.90;65.10;;;;;;5060993;28;20041;-62
2021/01/01 09:00:15;;;;;;;18.95;9.88;;;2.00;65.70;;;;;;5059270;28;20033;-62
2021/01/01 09:02:41;;;;;;;16.30;10.13;;;2.10;64.80;;;;;;5060470;28;20037;-62
2021/01/01 09:05:12;;;;;;;17.35;10.00;;;2.40;64.50;;;;;;5059044;28;20032;-62
2021/01/01 09:07:38;;;;;;;;;;;2.60;64.10;;;;;;5059277;28;20029;-62
2021/01/01 09:10:17;;;;;;;16.52;9.27;;;2.60;64.20;;;;;;5064150;28;19916;-61
2021/01/01 09:12:42;;;;;;;17.48;9.93;;;2.60;63.60;;;;;;5059842;28;20037;-62
2021/01/01 09:15:09;;;;;;;20.77;10.25;;;2.60;63.50;;;;;;5039327;28;20060;-61
2021/01/01 09:17:34;;;;;;;28.60;11.68;;;2.60;63.90;;;;;;5060301;28;20033;-62
2021/01/01 09:20:07;;;;;;;20.15;9.68;;;3.10;63.70;;;;;;5059322;28;20040;-62
2021/01/01 09:22:34;;;;;;;23.95;10.70;;;3.60;61.90;;;;;;5063565;28;20348;-62
2021/01/01 09:25:22;;;;;;;16.65;9.25;;;3.90;60.90;;;;;;5061274;28;20040;-63
2021/01/01 09:27:48;;;;;;;14.38;9.25;;;3.90;60.20;;;;;;5060550;28;20063;-63
2021/01/01 09:30:18;;;;;;;17.10;9.55;;;3.90;59.40;;;;;;5059492;28;20041;-63
2021/01/01 09:32:48;;;;;;;18.60;9.50;;;3.90;60.40;;;;;;5059111;28;20064;-63
2021/01/01 09:35:14;;;;;;;18.25;9.27;;;4.00;59.80;;;;;;5060309;28;20087;-63
2021/01/01 09:37:50;;;;;;;16.65;9.27;;;4.20;59.20;;;;;;5060273;28;20037;-64
2021/01/01 09:40:16;;;;;;;16.30;9.60;;;4.40;60.10;;;;;;5049449;28;20033;-62
2021/01/01 09:42:42;;;;;;;14.63;9.77;;;4.50;59.10;;;;;;5062533;28;20055;-61
2021/01/01 09:45:08;;;;;;;14.73;9.07;;;4.80;57.90;;;;;;5063496;28;20025;-63
2021/01/01 09:47:34;;;;;;;14.82;8.98;;;5.40;56.20;;;;;;5063495;28;20036;-62
2021/01/01 09:49:59;;;;;;;15.10;8.90;;;6.00;54.10;;;;;;5062419;28;20206;-62
2021/01/01 09:52:25;;;;;;;16.67;9.75;;;6.30;53.10;;;;;;5065876;28;20036;-62
2021/01/01 09:54:50;;;;;;;16.50;8.93;;;6.50;52.00;;;;;;5063986;28;20342;-60
2021/01/01 09:57:16;;;;;;;15.82;10.32;;;6.50;51.50;;;;;;5063447;28;20036;-60
2021/01/01 09:59:41;;;;;;;16.52;9.27;;;6.70;52.40;;;;;;5063670;28;20048;-60
2021/01/01 10:02:07;;;;;;;16.13;9.40;;;6.30;51.10;;;;;;5063645;28;20036;-63
2021/01/01 10:04:32;;;;;;;15.18;9.15;;;5.90;52.00;;;;;;5066630;28;20032;-60
2021/01/01 10:06:58;;;;;;;19.15;8.93;;;6.00;52.90;;;;;;5063263;28;20041;-60
2021/01/01 10:09:24;;;;;;;17.25;8.95;;;6.30;52.10;;;;;;5063552;28;20037;-61
2021/01/01 10:11:49;;;;;;;13.63;8.38;;;6.40;53.50;;;;;;5063284;28;20037;-62
2021/01/01 10:14:15;;;;;;;13.93;7.97;;;6.70;51.50;;;;;;5063223;28;20386;-63
2021/01/01 10:16:41;;;;;;;13.57;8.25;;;6.80;52.80;;;;;;5063124;28;20029;-63
2021/01/01 10:19:06;;;;;;;15.82;8.10;;;6.80;50.70;;;;;;5048831;28;20200;-63
2021/01/01 10:21:32;;;;;;;12.30;7.75;;;6.80;50.70;;;;;;5062180;28;20247;-64
2021/01/01 10:23:57;;;;;;;16.30;8.45;;;6.80;51.20;;;;;;5062922;28;20049;-63
2021/01/01 10:26:23;;;;;;;15.82;8.18;;;6.70;51.50;;;;;;5062008;28;20037;-63
2021/01/01 10:28:48;;;;;;;17.27;8.07;;;6.70;51.00;;;;;;5062744;28;20079;-63
2021/01/01 10:31:20;;;;;;;15.43;8.23;;;6.60;51.90;;;;;;5066470;28;20029;-64
2021/01/01 10:33:45;;;;;;;15.13;8.38;;;6.50;51.00;;;;;;5062942;28;20039;-63
2021/01/01 10:36:14;;;;;;;15.18;8.20;;;6.60;52.20;;;;;;5062273;28;20336;-63
2021/01/01 10:38:40;;;;;;;13.38;8.57;;;6.80;52.70;;;;;;5062512;28;20041;-64
2021/01/01 10:41:05;;;;;;;17.25;8.98;;;6.90;52.70;;;;;;5062509;28;20067;-63
2021/01/01 10:43:31;;;;;;;13.50;8.43;;;6.90;52.50;;;;;;5064496;28;20025;-63
2021/01/01 10:45:57;;;;;;;15.63;8.85;;;7.10;52.80;;;;;;5062924;28;20040;-65
2021/01/01 10:48:22;;;;;;;15.05;8.63;;;7.20;52.00;;;;;;5062640;28;20029;-63
2021/01/01 10:50:48;;;;;;;13.32;7.53;;;7.30;53.10;;;;;;5062049;28;20092;-61
2021/01/01 10:53:13;;;;;;;14.50;7.78;;;7.50;53.80;;;;;;5062275;28;20271;-62
2021/01/01 10:55:42;;;;;;;14.60;8.27;;;7.50;53.70;;;;;;5062431;28;20037;-61
2021/01/01 10:58:08;;;;;;;17.83;8.95;;;7.60;53.30;;;;;;5065914;28;20243;-60
2021/01/01 11:00:33;;;;;;;13.48;8.38;;;7.70;50.60;;;;;;5062685;28;20083;-61
2021/01/01 11:02:59;;;;;;;14.10;8.68;;;7.90;51.90;;;;;;5062033;28;20040;-61
2021/01/01 11:05:24;;;;;;;13.75;8.07;;;8.00;51.70;;;;;;5061915;28;20251;-62
2021/01/01 11:07:50;;;;;;;16.65;9.13;;;8.30;51.60;;;;;;5062043;28;20372;-61
2021/01/01 11:10:15;;;;;;;11.88;8.35;;;8.50;50.90;;;;;;5063860;28;20029;-62
2021/01/01 11:12:41;;;;;;;14.60;8.50;;;8.80;50.80;;;;;;5062349;28;20037;-61
2021/01/01 12:19:22;;;;;;;13.68;8.10;;;8.90;50.10;;;;;;5062051;28;20116;-61
2021/01/01 12:22:15;;;;;;;12.68;5.90;;;9.50;51.30;;;;;;5059997;28;20037;-62
2021/01/01 12:27:01;;;;;;;9.83;6.07;;;9.50;52.30;;;;;;5061011;28;20059;-62
2021/01/01 12:29:27;;;;;;;12.25;6.45;;;9.40;52.00;;;;;;5060658;28;20267;-62
2021/01/01 12:31:52;;;;;;;14.13;5.85;;;9.30;52.80;;;;;;5060102;28;20088;-62
2021/01/01 12:34:18;;;;;;;9.90;5.75;;;9.10;53.50;;;;;;5063903;28;20069;-62
2021/01/01 12:36:44;;;;;;;10.05;5.78;;;9.10;53.60;;;;;;5060779;28;20032;-62
2021/01/01 12:39:09;;;;;;;8.30;5.43;;;8.80;55.00;;;;;;5060332;28;20044;-61
2021/01/01 12:41:35;;;;;;;8.98;5.90;;;8.80;54.70;;;;;;5060748;28;20227;-62
2021/01/01 12:44:01;;;;;;;9.48;6.07;;;8.70;55.60;;;;;;5060876;28;20033;-62
2021/01/01 12:46:26;;;;;;;9.32;5.43;;;8.60;55.30;;;;;;5063753;28;20080;-62
2021/01/01 12:48:52;;;;;;;9.48;5.72;;;8.60;55.80;;;;;;5061190;28;20044;-62
2021/01/01 12:51:17;;;;;;;13.00;6.30;;;8.60;56.40;;;;;;5060630;28;20045;-61
2021/01/01 12:53:44;;;;;;;12.70;7.25;;;8.60;56.30;;;;;;5060525;28;20068;-62
2021/01/01 12:56:10;;;;;;;10.80;6.55;;;8.50;56.60;;;;;;5060309;28;20040;-62
2021/01/01 12:58:35;;;;;;;10.60;5.97;;;8.60;56.40;;;;;;5060494;28;20029;-65
2021/01/01 13:01:01;;;;;;;9.85;5.68;;;8.50;56.40;;;;;;5063461;28;20049;-62
2021/01/01 13:03:26;;;;;;;11.13;5.97;;;8.50;56.00;;;;;;5060430;28;20044;-63
2021/01/01 13:05:52;;;;;;;11.00;6.43;;;8.50;56.30;;;;;;5060478;28;20079;-65
2021/01/01 13:08:18;;;;;;;10.13;5.93;;;8.50;56.80;;;;;;5060444;28;20040;-63
2021/01/01 13:10:43;;;;;;;8.60;5.68;;;8.50;57.00;;;;;;5059110;28;20071;-63
2021/01/01 13:13:09;;;;;;;9.35;6.28;;;8.50;57.10;;;;;;5062966;28;20044;-65
2021/01/01 13:15:34;;;;;;;13.57;6.38;;;8.50;56.60;;;;;;5063105;28;20300;-67
2021/01/01 13:18:00;;;;;;;9.90;6.47;;;8.40;56.90;;;;;;5063736;28;20100;-69
2021/01/01 13:20:25;;;;;;;9.90;6.45;;;8.40;57.00;;;;;;5046105;28;20029;-65
2021/01/01 13:22:51;;;;;;;10.23;6.30;;;8.40;57.60;;;;;;5063610;28;20053;-67
2021/01/01 13:25:20;;;;;;;14.52;7.57;;;8.30;57.90;;;;;;5066919;28;20074;-65
2021/01/01 13:27:45;;;;;;;10.35;6.63;;;8.30;57.90;;;;;;5063958;28;20044;-66
2021/01/01 13:30:12;;;;;;;11.57;7.13;;;8.20;58.60;;;;;;5045782;28;20332;-66
2021/01/01 13:32:38;;;;;;;11.00;6.95;;;8.10;57.40;;;;;;5062759;28;20043;-66
2021/01/01 13:35:04;;;;;;;14.27;7.88;;;7.90;56.90;;;;;;5029278;28;20036;-66
2021/01/01 13:37:30;;;;;;;13.48;7.50;;;7.90;57.00;;;;;;5049499;28;20033;-67
2021/01/01 13:39:56;;;;;;;11.73;7.65;;;8.00;57.00;;;;;;5045744;28;20047;-65
2021/01/01 13:42:21;;;;;;;12.90;7.28;;;8.00;56.90;;;;;;5062739;28;20044;-64
2021/01/01 13:44:47;;;;;;;12.48;7.65;;;7.80;56.60;;;;;;5063286;28;20044;-62
2021/01/01 13:47:12;;;;;;;13.68;7.20;;;7.70;57.00;;;;;;5063996;28;20095;-64